Wolcott, New York
Current Conditions -  °F | °C
As of 3:54 AM on Saturday 22 Nov 2014 (Local Time) from KFZY Reporting Station
Clear Clear  
Wind Chill: 16°   Ceiling: Unl
Heat Index: 25°   Visibility: 10mi
Dew Point: 12°   Wind: 9mph
Humidity: 58%   Direction: 210°SSW
Pressure: 30.35"   Gusts: NA
Location:  43.22°N, 76.81°W
Report Text: KFZY 220854Z AUTO 21008KT 10SM CLR M04/M11 A3035 RMK AO2 SLP283 T10391111 56015
Loading
Personal Weather Stations






























Interactive Weather Map New forecast layout! Learn more

10-Day Weather Forecast

Advertisements
Track Severe Weather on mobile